createdAt,value
2018-07-01T00:01:46.482Z,49.80
2018-07-01T00:04:14.863Z,50.30
2018-07-01T00:06:43.327Z,51.90
2018-07-01T00:09:11.740Z,52.50
2018-07-01T00:11:40.138Z,51.40
2018-07-01T00:14:08.497Z,51.70
2018-07-01T00:16:36.925Z,51.40
2018-07-01T00:19:05.892Z,51.30
2018-07-01T00:21:34.337Z,50.70
2018-07-01T00:24:02.737Z,50.60
2018-07-01T00:26:31.103Z,50.80
2018-07-01T00:28:59.574Z,50.40
2018-07-01T00:31:27.998Z,50.80
2018-07-01T00:33:56.395Z,50.70
2018-07-01T00:36:24.834Z,50.70
2018-07-01T00:38:54.075Z,50.10
2018-07-01T00:41:22.447Z,50.80
2018-07-01T00:43:50.865Z,51.30
2018-07-01T00:46:19.310Z,50.80
2018-07-01T00:48:47.700Z,51.20
2018-07-01T00:51:16.088Z,50.90
2018-07-01T00:53:44.484Z,51.20
2018-07-01T00:56:12.964Z,51.80
2018-07-01T00:58:41.358Z,51.90
2018-07-01T01:01:09.872Z,52.30
2018-07-01T01:03:38.208Z,51.70
2018-07-01T01:06:06.620Z,51.60
2018-07-01T01:08:35.044Z,52.10
2018-07-01T01:13:31.586Z,53.40
2018-07-01T01:16:00.067Z,54.00
2018-07-01T01:18:28.456Z,55.20
2018-07-01T01:20:56.939Z,54.80
2018-07-01T01:23:25.613Z,54.50
2018-07-01T01:25:54.041Z,54.60
2018-07-01T01:28:22.428Z,53.90
2018-07-01T01:30:50.921Z,54.60
2018-07-01T01:33:19.341Z,54.70
2018-07-01T01:35:48.213Z,53.60
2018-07-01T01:38:16.877Z,54.00
2018-07-01T01:40:50.207Z,53.80
2018-07-01T01:43:23.793Z,53.50
2018-07-01T01:46:01.465Z,54.00
2018-07-01T01:48:34.959Z,53.70
2018-07-01T01:51:14.399Z,54.10
2018-07-01T01:53:46.790Z,54.80
2018-07-01T01:56:23.424Z,55.40
2018-07-01T01:58:56.114Z,55.90
2018-07-01T02:01:43.273Z,56.40
2018-07-01T02:04:16.046Z,56.80
2018-07-01T02:06:47.725Z,57.20
2018-07-01T02:09:20.780Z,57.80
2018-07-01T02:11:51.690Z,58.80
2018-07-01T02:14:25.808Z,58.70
2018-07-01T02:16:57.113Z,58.10
2018-07-01T02:19:25.515Z,57.90
2018-07-01T02:21:54.269Z,57.60
2018-07-01T02:24:37.101Z,57.90
2018-07-01T02:27:05.954Z,56.40
2018-07-01T02:29:34.367Z,56.30
2018-07-01T02:32:02.782Z,56.10
2018-07-01T02:34:31.811Z,56.20
2018-07-01T02:37:00.226Z,56.50
2018-07-01T02:39:28.676Z,56.00
2018-07-01T02:41:57.026Z,56.70
2018-07-01T02:44:25.486Z,57.60
2018-07-01T02:46:53.836Z,58.50
2018-07-01T02:49:22.250Z,58.50
2018-07-01T02:51:50.585Z,57.90
2018-07-01T02:54:18.990Z,57.60
2018-07-01T02:56:48.414Z,57.70
2018-07-01T02:59:16.826Z,58.20
2018-07-01T03:01:45.189Z,59.20
2018-07-01T03:04:13.596Z,60.00
2018-07-01T03:06:41.957Z,60.90
2018-07-01T03:09:12.607Z,60.70
2018-07-01T03:11:41.017Z,60.40
2018-07-01T03:14:09.457Z,60.70
2018-07-01T03:16:37.818Z,61.40
2018-07-01T03:19:06.254Z,61.00
2018-07-01T03:21:34.662Z,60.60
2018-07-01T03:24:03.088Z,60.90
2018-07-01T03:26:31.440Z,61.20
2018-07-01T03:28:59.841Z,60.40
2018-07-01T03:31:28.257Z,60.40
2018-07-01T03:33:56.748Z,60.60
2018-07-01T03:36:25.119Z,60.90
2018-07-01T03:38:53.502Z,61.90
2018-07-01T03:41:21.899Z,61.60
2018-07-01T03:43:53.279Z,61.60
2018-07-01T03:46:21.628Z,60.30
2018-07-01T03:48:50.033Z,60.40
2018-07-01T03:51:18.860Z,60.00
2018-07-01T03:53:47.237Z,59.80
2018-07-01T03:56:15.618Z,58.70
2018-07-01T03:58:43.996Z,58.50
2018-07-01T04:01:12.470Z,58.90
2018-07-01T04:03:40.875Z,58.70
2018-07-01T04:06:09.294Z,58.90
2018-07-01T04:08:37.668Z,59.60
2018-07-01T04:11:06.307Z,59.80
2018-07-01T04:13:34.669Z,60.00
2018-07-01T04:16:03.384Z,60.60
2018-07-01T04:18:31.767Z,60.10
2018-07-01T04:21:00.996Z,59.50
2018-07-01T04:23:29.431Z,59.50
2018-07-01T04:25:57.819Z,59.80
2018-07-01T04:28:26.207Z,59.10
2018-07-01T04:30:54.647Z,58.80
2018-07-01T04:33:22.992Z,58.70
2018-07-01T04:35:51.373Z,58.70
2018-07-01T04:38:19.750Z,58.70
2018-07-01T04:40:48.150Z,58.80
2018-07-01T04:43:16.542Z,58.30
2018-07-01T04:45:44.959Z,57.70
2018-07-01T04:48:13.331Z,57.10
2018-07-01T04:50:41.754Z,57.30
2018-07-01T04:53:10.177Z,56.90
2018-07-01T04:55:38.565Z,56.40
2018-07-01T04:58:07.314Z,55.90
2018-07-01T05:00:36.168Z,55.70
2018-07-01T05:03:04.587Z,55.50
2018-07-01T05:05:33.010Z,55.80
2018-07-01T05:08:01.418Z,55.00
2018-07-01T05:10:29.812Z,54.70
2018-07-01T05:12:58.207Z,53.90
2018-07-01T05:15:26.603Z,54.50
2018-07-01T05:17:55.017Z,54.50
2018-07-01T05:20:23.406Z,54.40
2018-07-01T05:22:51.789Z,54.10
2018-07-01T05:25:20.156Z,54.00
2018-07-01T05:27:48.539Z,55.10
2018-07-01T05:30:16.925Z,54.10
2018-07-01T05:32:45.308Z,53.50
2018-07-01T05:35:14.596Z,53.70
2018-07-01T05:37:43.008Z,53.70
2018-07-01T05:40:11.425Z,53.70
2018-07-01T05:42:39.805Z,53.20
2018-07-01T05:45:08.290Z,53.00
2018-07-01T05:47:37.561Z,52.50
2018-07-01T05:50:06.101Z,51.90
2018-07-01T05:52:34.550Z,51.70
2018-07-01T05:55:02.997Z,52.00
2018-07-01T05:57:31.405Z,52.20
2018-07-01T06:00:00.616Z,51.00
2018-07-01T06:02:29.293Z,50.20
2018-07-01T06:04:57.892Z,49.60
2018-07-01T06:07:26.338Z,49.60
2018-07-01T06:09:54.830Z,49.20
2018-07-01T06:12:23.427Z,48.30
2018-07-01T06:14:51.844Z,47.90
2018-07-01T06:17:20.357Z,48.20
2018-07-01T06:19:48.876Z,46.10
2018-07-01T06:24:45.632Z,46.30
2018-07-01T06:27:14.060Z,45.70
2018-07-01T06:29:42.549Z,45.40
2018-07-01T06:34:39.225Z,44.70
2018-07-01T06:37:07.636Z,44.90
2018-07-01T06:39:36.229Z,45.70
2018-07-01T06:42:05.207Z,46.40
2018-07-01T06:44:40.415Z,46.10
2018-07-01T06:47:08.866Z,46.10
2018-07-01T06:49:37.305Z,46.60
2018-07-01T06:52:05.744Z,46.70
2018-07-01T06:54:34.165Z,47.10
2018-07-01T06:57:03.378Z,47.50
2018-07-01T06:59:31.786Z,47.30
2018-07-01T07:02:00.205Z,47.40
2018-07-01T07:04:28.624Z,47.70
2018-07-01T07:06:57.066Z,48.20
2018-07-01T07:09:25.520Z,48.30
2018-07-01T07:11:53.924Z,48.60
2018-07-01T07:14:22.397Z,47.40
2018-07-01T07:16:50.847Z,46.40
2018-07-01T07:19:19.314Z,45.30
2018-07-01T07:21:47.692Z,43.90
2018-07-01T07:24:16.102Z,43.70
2018-07-01T07:26:44.476Z,44.40
2018-07-01T07:29:12.916Z,44.30
2018-07-01T07:31:41.345Z,43.70
2018-07-01T07:36:37.882Z,41.80
2018-07-01T07:39:09.002Z,41.40
2018-07-01T07:41:37.352Z,42.00
2018-07-01T07:44:05.789Z,41.70
2018-07-01T07:46:34.701Z,40.80
2018-07-01T07:49:03.072Z,40.50
2018-07-01T07:51:31.515Z,40.00
2018-07-01T07:53:59.928Z,39.30
2018-07-01T07:58:56.471Z,39.90
2018-07-01T08:01:24.891Z,38.90
2018-07-01T08:03:53.277Z,38.40
2018-07-01T08:06:21.695Z,36.90
2018-07-01T08:08:50.059Z,35.50
2018-07-01T08:11:18.435Z,35.70
2018-07-01T08:13:46.786Z,34.60
2018-07-01T08:16:15.336Z,35.40
2018-07-01T08:18:43.710Z,35.40
2018-07-01T08:21:12.102Z,34.40
2018-07-01T08:23:40.533Z,35.00
2018-07-01T08:26:08.925Z,34.30
2018-07-01T08:28:37.246Z,33.30
2018-07-01T08:31:05.640Z,34.00
2018-07-01T08:33:34.555Z,34.30
2018-07-01T08:36:02.954Z,34.30
2018-07-01T08:38:31.328Z,36.00
2018-07-01T08:40:59.751Z,36.60
2018-07-01T08:43:28.173Z,36.10
2018-07-01T08:45:56.637Z,36.00
2018-07-01T08:48:25.009Z,36.10
2018-07-01T08:50:53.420Z,35.60
2018-07-01T08:53:21.779Z,34.90
2018-07-01T08:55:50.167Z,34.60
2018-07-01T08:58:18.507Z,34.40
2018-07-01T09:00:46.914Z,33.80
2018-07-01T09:03:15.373Z,33.60
2018-07-01T09:05:43.757Z,31.70
2018-07-01T09:08:12.126Z,32.60
2018-07-01T09:10:40.556Z,32.10
2018-07-01T09:13:08.929Z,31.80
2018-07-01T09:15:37.292Z,30.90
2018-07-01T09:18:05.680Z,30.20
2018-07-01T09:20:35.002Z,30.90
2018-07-01T09:23:03.521Z,30.00
2018-07-01T09:25:31.873Z,29.90
2018-07-01T09:28:00.253Z,30.90
2018-07-01T09:30:28.716Z,30.20
2018-07-01T09:32:57.088Z,29.80
2018-07-01T09:35:25.445Z,29.90
2018-07-01T09:37:53.814Z,29.10
2018-07-01T09:40:22.231Z,28.20
2018-07-01T09:42:50.603Z,28.70
2018-07-01T09:45:19.117Z,28.50
2018-07-01T09:47:47.556Z,28.50
2018-07-01T09:50:15.958Z,28.30
2018-07-01T09:52:44.358Z,27.90
2018-07-01T09:55:12.805Z,28.40
2018-07-01T09:57:41.226Z,27.60
2018-07-01T10:00:09.620Z,27.50
2018-07-01T10:02:38.043Z,27.30
2018-07-01T10:05:06.426Z,28.00
2018-07-01T10:07:34.797Z,28.50
2018-07-01T10:10:03.169Z,29.10
2018-07-01T10:12:31.549Z,29.70
2018-07-01T10:14:59.911Z,29.40
2018-07-01T10:17:28.370Z,29.40
2018-07-01T10:19:56.733Z,29.70
2018-07-01T10:22:25.157Z,29.50
2018-07-01T10:24:53.588Z,29.80
2018-07-01T10:27:21.911Z,29.90
2018-07-01T10:29:50.308Z,30.00
2018-07-01T10:32:18.686Z,29.30
2018-07-01T10:34:47.080Z,28.20
2018-07-01T10:37:15.554Z,28.70
2018-07-01T10:39:44.061Z,28.30
2018-07-01T10:42:12.530Z,28.50
2018-07-01T10:44:40.954Z,28.00
2018-07-01T10:47:09.854Z,26.30
2018-07-01T10:49:38.238Z,26.40
2018-07-01T10:54:34.918Z,26.70
2018-07-01T10:57:03.333Z,26.50
2018-07-01T10:59:31.708Z,26.20
2018-07-01T11:02:00.087Z,25.30
2018-07-01T11:04:28.448Z,25.20
2018-07-01T11:06:56.815Z,25.40
2018-07-01T11:09:25.164Z,24.70
2018-07-01T11:11:53.522Z,24.70
2018-07-01T11:14:21.941Z,24.60
2018-07-01T11:16:50.461Z,24.70
2018-07-01T11:19:18.887Z,24.80
2018-07-01T11:21:47.335Z,25.90
2018-07-01T11:24:15.688Z,25.90
2018-07-01T11:26:44.139Z,25.30
2018-07-01T11:29:12.517Z,24.90
2018-07-01T11:31:40.950Z,24.60
2018-07-01T11:34:09.288Z,24.80
2018-07-01T11:36:37.634Z,24.90
2018-07-01T11:39:08.208Z,24.30
2018-07-01T11:41:36.570Z,23.80
2018-07-01T11:44:04.955Z,23.80
2018-07-01T11:46:33.506Z,23.60
2018-07-01T11:49:01.905Z,23.80
2018-07-01T11:51:30.265Z,23.80
2018-07-01T11:53:58.724Z,22.80
2018-07-01T11:56:27.124Z,22.90
2018-07-01T11:58:55.451Z,22.20
2018-07-01T12:01:23.905Z,22.70
2018-07-01T12:03:52.320Z,23.30
2018-07-01T12:06:20.806Z,23.50
2018-07-01T12:08:49.156Z,23.60
2018-07-01T12:11:17.508Z,24.90
2018-07-01T12:13:45.889Z,25.20
2018-07-01T12:16:14.275Z,25.50
2018-07-01T12:18:42.630Z,25.40
2018-07-01T12:21:10.993Z,24.80
2018-07-01T12:23:39.396Z,24.90
2018-07-01T12:26:07.783Z,24.50
2018-07-01T12:28:36.143Z,24.60
2018-07-01T12:31:04.612Z,25.30
2018-07-01T12:33:33.021Z,25.70
2018-07-01T12:36:01.501Z,25.30
2018-07-01T12:38:29.899Z,25.10
2018-07-01T12:40:58.327Z,25.30
2018-07-01T12:43:26.721Z,25.10
2018-07-01T12:45:55.881Z,25.40
2018-07-01T12:48:24.228Z,26.10
2018-07-01T12:50:52.725Z,25.70
2018-07-01T12:53:21.061Z,26.10
2018-07-01T12:55:49.528Z,26.60
2018-07-01T12:58:17.847Z,26.30
2018-07-01T13:00:46.240Z,25.90
2018-07-01T13:05:42.762Z,25.70
2018-07-01T13:08:11.143Z,25.00
2018-07-01T13:10:39.581Z,24.80
2018-07-01T13:13:07.948Z,25.70
2018-07-01T13:15:36.411Z,26.20
2018-07-01T13:18:04.897Z,26.30
2018-07-01T13:20:33.257Z,26.60
2018-07-01T13:23:01.956Z,27.50
2018-07-01T13:25:30.357Z,27.80
2018-07-01T13:27:58.708Z,27.70
2018-07-01T13:30:27.053Z,28.00
2018-07-01T13:32:55.415Z,28.40
2018-07-01T13:35:23.777Z,28.40
2018-07-01T13:37:52.160Z,28.00
2018-07-01T13:40:20.510Z,27.80
2018-07-01T13:42:49.086Z,27.20
2018-07-01T13:45:17.474Z,28.00
2018-07-01T13:47:45.931Z,28.50
2018-07-01T13:50:14.320Z,27.90
2018-07-01T13:52:42.949Z,28.40
2018-07-01T13:55:12.478Z,28.90
2018-07-01T13:57:40.883Z,29.00
2018-07-01T14:00:09.689Z,29.10
2018-07-01T14:02:38.126Z,29.30
2018-07-01T14:05:07.008Z,29.60
2018-07-01T14:07:35.381Z,29.10
2018-07-01T14:10:03.818Z,29.00
2018-07-01T14:12:32.178Z,28.30
2018-07-01T14:15:00.637Z,28.10
2018-07-01T14:17:29.108Z,28.00
2018-07-01T14:19:57.463Z,27.60
2018-07-01T14:22:25.850Z,27.80
2018-07-01T14:24:54.217Z,28.20
2018-07-01T14:27:22.644Z,28.90
2018-07-01T14:29:50.969Z,29.20
2018-07-01T14:32:19.323Z,29.70
2018-07-01T14:34:47.716Z,29.50
2018-07-01T14:37:16.092Z,29.80
2018-07-01T14:39:44.446Z,30.80
2018-07-01T14:42:12.807Z,31.40
2018-07-01T14:44:41.157Z,31.90
2018-07-01T14:47:09.560Z,32.10
2018-07-01T14:49:38.024Z,32.40
2018-07-01T14:52:06.384Z,32.50
2018-07-01T14:54:34.766Z,32.60
2018-07-01T14:57:03.747Z,32.50
2018-07-01T14:59:32.123Z,32.80
2018-07-01T15:02:00.551Z,33.60
2018-07-01T15:04:28.994Z,33.20
2018-07-01T15:06:57.347Z,32.50
2018-07-01T15:09:25.784Z,32.90
2018-07-01T15:11:54.147Z,33.50
2018-07-01T15:14:22.568Z,33.30
2018-07-01T15:16:50.919Z,32.90
2018-07-01T15:19:19.284Z,32.20
2018-07-01T15:21:47.659Z,31.50
2018-07-01T15:24:16.055Z,30.90
2018-07-01T15:26:44.416Z,31.00
2018-07-01T15:29:12.880Z,30.40
2018-07-01T15:31:41.256Z,29.80
2018-07-01T15:34:09.659Z,30.10
2018-07-01T15:36:38.104Z,31.60
2018-07-01T15:39:10.658Z,31.50
2018-07-01T15:41:39.060Z,30.70
2018-07-01T15:44:07.530Z,29.90
2018-07-01T15:46:36.304Z,30.00
2018-07-01T15:49:04.729Z,29.30
2018-07-01T15:51:34.483Z,29.80
2018-07-01T15:54:02.964Z,29.60
2018-07-01T15:56:31.345Z,29.30
2018-07-01T15:58:59.847Z,28.40
2018-07-01T16:01:28.215Z,28.50
2018-07-01T16:03:56.592Z,28.10
2018-07-01T16:06:24.968Z,28.20
2018-07-01T16:08:53.334Z,28.00
2018-07-01T16:11:21.710Z,28.10
2018-07-01T16:13:50.071Z,28.00
2018-07-01T16:16:18.504Z,27.70
2018-07-01T16:18:46.849Z,28.20
2018-07-01T16:21:15.350Z,28.30
2018-07-01T16:23:43.694Z,28.80
2018-07-01T16:26:17.540Z,29.30
2018-07-01T16:28:51.360Z,29.20
2018-07-01T16:31:19.779Z,28.90
2018-07-01T16:33:48.145Z,28.50
2018-07-01T16:36:16.595Z,29.00
2018-07-01T16:38:44.967Z,29.00
2018-07-01T16:41:13.388Z,29.20
2018-07-01T16:43:41.760Z,28.60
2018-07-01T16:46:10.193Z,28.80
2018-07-01T16:48:38.548Z,28.60
2018-07-01T16:51:06.933Z,28.60
2018-07-01T16:53:35.408Z,28.40
2018-07-01T16:56:03.933Z,28.30
2018-07-01T16:58:32.279Z,27.50
2018-07-01T17:01:00.688Z,27.50
2018-07-01T17:03:29.132Z,27.80
2018-07-01T17:05:58.053Z,28.10
2018-07-01T17:08:26.440Z,28.40
2018-07-01T17:10:54.860Z,28.80
2018-07-01T17:13:23.375Z,29.30
2018-07-01T17:15:51.994Z,28.70
2018-07-01T17:18:20.417Z,28.90
2018-07-01T17:20:48.752Z,29.20
2018-07-01T17:23:17.174Z,28.60
2018-07-01T17:25:55.213Z,28.70
2018-07-01T17:28:25.180Z,28.60
2018-07-01T17:30:59.005Z,28.70
2018-07-01T17:33:28.361Z,28.40
2018-07-01T17:35:56.696Z,27.80
2018-07-01T17:38:25.203Z,27.90
2018-07-01T17:40:53.674Z,28.30
2018-07-01T17:43:22.421Z,27.90
2018-07-01T17:45:50.780Z,27.90
2018-07-01T17:48:19.231Z,28.20
2018-07-01T17:50:47.619Z,28.70
2018-07-01T17:53:27.400Z,29.30
2018-07-01T17:55:55.935Z,29.80
2018-07-01T17:58:24.562Z,30.60
2018-07-01T18:00:52.965Z,31.20
2018-07-01T18:03:21.417Z,31.50
2018-07-01T18:05:50.078Z,30.90
2018-07-01T18:08:18.638Z,30.80
2018-07-01T18:10:47.046Z,31.10
2018-07-01T18:13:15.400Z,32.50
2018-07-01T18:15:43.751Z,32.40
2018-07-01T18:18:12.300Z,32.10
2018-07-01T18:20:40.676Z,30.90
2018-07-01T18:23:35.842Z,32.90
2018-07-01T18:25:37.463Z,34.80
2018-07-01T18:28:18.878Z,36.20
2018-07-01T18:30:34.239Z,36.50
2018-07-01T18:33:02.595Z,36.90
2018-07-01T18:35:31.049Z,36.70
2018-07-01T18:37:59.502Z,37.60
2018-07-01T18:40:27.940Z,37.30
2018-07-01T18:42:56.277Z,37.10
2018-07-01T18:45:24.640Z,36.70
2018-07-01T18:47:53.017Z,37.00
2018-07-01T18:50:21.399Z,37.60
2018-07-01T18:52:49.787Z,37.50
2018-07-01T18:55:18.190Z,37.10
2018-07-01T18:57:46.651Z,37.30
2018-07-01T19:00:15.431Z,37.20
2018-07-01T19:02:43.908Z,37.00
2018-07-01T19:05:12.390Z,37.60
2018-07-01T19:07:40.828Z,37.60
2018-07-01T19:10:09.300Z,37.70
2018-07-01T19:12:37.670Z,37.80
2018-07-01T19:15:06.218Z,38.10
2018-07-01T19:17:34.616Z,38.30
2018-07-01T19:20:03.064Z,38.40
2018-07-01T19:24:59.563Z,38.30
2018-07-01T19:27:28.004Z,38.70
2018-07-01T19:29:56.443Z,38.70
2018-07-01T19:32:24.898Z,38.50
2018-07-01T19:34:53.271Z,39.00
2018-07-01T19:37:21.703Z,38.60
2018-07-01T19:39:50.232Z,39.20
2018-07-01T19:42:18.721Z,39.20
2018-07-01T19:44:47.056Z,39.20
2018-07-01T19:47:15.509Z,39.50
2018-07-01T19:49:43.901Z,39.90
2018-07-01T19:52:12.281Z,39.80
2018-07-01T19:54:40.696Z,40.20
2018-07-01T19:57:09.048Z,40.20
2018-07-01T19:59:37.485Z,40.30
2018-07-01T20:02:05.962Z,40.40
2018-07-01T20:04:34.345Z,40.50
2018-07-01T20:07:03.036Z,40.70
2018-07-01T20:09:31.414Z,41.10
2018-07-01T20:11:59.797Z,41.30
2018-07-01T20:14:28.330Z,41.30
2018-07-01T20:16:56.765Z,41.10
2018-07-01T20:19:25.137Z,41.20
2018-07-01T20:21:53.494Z,40.90
2018-07-01T20:24:21.856Z,41.70
2018-07-01T20:29:18.457Z,42.50
2018-07-01T20:31:46.837Z,42.90
2018-07-01T20:34:15.186Z,43.30
2018-07-01T20:36:44.184Z,42.80
2018-07-01T20:39:13.476Z,42.90
2018-07-01T20:41:42.295Z,43.40
2018-07-01T20:44:10.790Z,43.80
2018-07-01T20:46:39.229Z,43.70
2018-07-01T20:49:07.665Z,43.10
2018-07-01T20:51:36.022Z,43.80
2018-07-01T20:54:04.400Z,44.80
2018-07-01T20:56:32.777Z,44.00
2018-07-01T20:59:01.221Z,44.60
2018-07-01T21:01:29.657Z,44.80
2018-07-01T21:03:58.018Z,45.20
2018-07-01T21:06:26.576Z,45.80
2018-07-01T21:08:54.942Z,45.80
2018-07-01T21:11:23.313Z,46.00
2018-07-01T21:13:51.765Z,46.00
2018-07-01T21:16:20.173Z,46.50
2018-07-01T21:18:48.596Z,46.90
2018-07-01T21:21:16.981Z,47.40
2018-07-01T21:23:45.359Z,47.70
2018-07-01T21:26:13.747Z,48.00
2018-07-01T21:28:42.134Z,48.10
2018-07-01T21:31:10.752Z,48.10
2018-07-01T21:33:39.216Z,48.30
2018-07-01T21:36:07.712Z,48.70
2018-07-01T21:38:36.137Z,49.10
2018-07-01T21:41:04.531Z,49.20
2018-07-01T21:43:32.927Z,49.50
2018-07-01T21:46:01.387Z,49.50
2018-07-01T21:48:29.834Z,50.50
2018-07-01T21:50:58.213Z,49.80
2018-07-01T21:53:26.636Z,50.70
2018-07-01T21:55:55.010Z,50.60
2018-07-01T21:58:23.398Z,51.00
2018-07-01T22:00:51.873Z,50.90
2018-07-01T22:03:20.267Z,50.70
2018-07-01T22:05:48.630Z,50.90
2018-07-01T22:08:17.035Z,51.90
2018-07-01T22:10:57.509Z,51.50
2018-07-01T22:14:31.511Z,52.00
2018-07-01T22:17:00.274Z,51.80
2018-07-01T22:19:28.731Z,51.80
2018-07-01T22:21:57.669Z,52.20
2018-07-01T22:24:27.353Z,52.50
2018-07-01T22:26:55.824Z,53.00
2018-07-01T22:29:24.239Z,53.10
2018-07-01T22:31:52.612Z,53.20
2018-07-01T22:34:21.511Z,53.70
2018-07-01T22:36:50.199Z,53.70
2018-07-01T22:39:24.687Z,54.90
2018-07-01T22:41:54.301Z,54.40
2018-07-01T22:44:22.776Z,54.60
2018-07-01T22:46:51.880Z,54.10
2018-07-01T22:49:20.321Z,54.70
2018-07-01T22:51:48.730Z,54.60
2018-07-01T22:54:17.157Z,54.60
2018-07-01T22:56:45.499Z,54.80
2018-07-01T22:59:13.875Z,54.80
2018-07-01T23:01:53.536Z,55.60
2018-07-01T23:04:21.945Z,55.60
2018-07-01T23:06:50.359Z,55.70
2018-07-01T23:09:18.776Z,55.90
2018-07-01T23:11:47.139Z,55.90
2018-07-01T23:14:15.510Z,56.20
2018-07-01T23:16:43.919Z,56.40
2018-07-01T23:19:12.361Z,56.50
2018-07-01T23:21:40.968Z,57.20
2018-07-01T23:24:09.435Z,56.40
2018-07-01T23:26:38.843Z,56.80
2018-07-01T23:29:07.234Z,56.90
2018-07-01T23:31:35.628Z,56.90
2018-07-01T23:34:04.652Z,56.70
2018-07-01T23:36:33.090Z,57.30
2018-07-01T23:39:01.455Z,57.50
2018-07-01T23:41:29.951Z,57.50
2018-07-01T23:43:58.384Z,57.90
2018-07-01T23:46:26.762Z,58.20
2018-07-01T23:48:55.158Z,57.80
2018-07-01T23:51:23.541Z,57.70
2018-07-01T23:53:51.896Z,57.60
2018-07-01T23:56:20.258Z,58.20
2018-07-01T23:58:48.651Z,58.50
